This is the latest recevied weather packets stored in our database for station/object KB1JL-13. If no packets are shown the sender has not sent any weather packets the latest 10 day(s).
| Time | Temp. | Humidity | Pressure | Rain* | Wind** | Luminosity | Snow |
|---|---|---|---|---|---|---|---|
| 1777891119 | 7.22° C | 73% | 1024.7 hPa | 0 mm | - | 44 W/m² | - |
| 1777890815 | 8.89° C | 66% | 1024.7 hPa | 0 mm | - | 37 W/m² | - |
| 1777890511 | 8.33° C | 63% | 1024.4 hPa | 0 mm | - | 32 W/m² | - |
| 1777890206 | 8.33° C | 63% | 1024.4 hPa | 0 mm | - | 31 W/m² | - |
| 1777889903 | 8.33° C | 63% | 1024.4 hPa | 0 mm | - | 24 W/m² | - |
| 1777889601 | 8.33° C | 62% | 1024.4 hPa | 0 mm | - | 18 W/m² | - |
| 1777889298 | 8.33° C | 62% | 1024.4 hPa | 0 mm | - | 13 W/m² | - |
| 1777888995 | 8.33° C | 63% | 1024.4 hPa | 0 mm | - | 10 W/m² | - |
| 1777888693 | 8.33° C | 61% | 1024.4 hPa | 0 mm | - | 6 W/m² | - |
| 1777888388 | 8.33° C | 61% | 1024.4 hPa | 0 mm | - | 5 W/m² | - |
| 1777888085 | 8.89° C | 61% | 1024.4 hPa | 0 mm | - | 2 W/m² | - |
| 1777887782 | 8.89° C | 61% | 1024.4 hPa | 0 mm | - | 0 W/m² | - |
| 1777887479 | 8.89° C | 60% | 1024.4 hPa | 0 mm | - | 0 W/m² | - |
| 1777887174 | 8.89° C | 61% | 1024.4 hPa | 0 mm | - | 0 W/m² | - |
| 1777886871 | 8.89° C | 60% | 1024 hPa | 0 mm | - | 0 W/m² | - |
| 1777886566 | 8.89° C | 60% | 1024.4 hPa | 0 mm | - | 0 W/m² | - |
| 1777886264 | 8.89° C | 60% | 1024 hPa | 0 mm | - | 0 W/m² | - |
| 1777885962 | 8.33° C | 62% | 1024 hPa | 0 mm | - | 0 W/m² | - |
| 1777885661 | 8.89° C | 60% | 1024 hPa | 0 mm | - | 0 W/m² | - |
| 1777885358 | 8.89° C | 59% | 1023.7 hPa | 0 mm | - | 0 W/m² | - |
| 1777885057 | 8.89° C | 59% | 1024 hPa | 0 mm | - | 0 W/m² | - |
| 1777884752 | 8.89° C | 59% | 1024 hPa | 0 mm | - | 0 W/m² | - |
| 1777884449 | 8.89° C | 60% | 1023.7 hPa | 0 mm | - | 0 W/m² | - |
| 1777884146 | 8.89° C | 60% | 1024 hPa | 0 mm | - | 0 W/m² | - |
| 1777883843 | 8.33° C | 61% | 1024 hPa | 0 mm | - | 0 W/m² | - |
* Rain latest hour (hover to see other rain measurements)
** Current wind speed in m/s (hover to see current wind gust speed)